createdAt,value
2022-09-28T00:01:25.404Z,73.45
2022-09-28T00:03:55.102Z,63.55
2022-09-28T00:06:26.790Z,64.40
2022-09-28T00:08:54.801Z,57.70
2022-09-28T00:11:23.085Z,70.28
2022-09-28T00:13:52.245Z,72.63
2022-09-28T00:16:21.962Z,65.00
2022-09-28T00:18:51.515Z,59.17
2022-09-28T00:21:24.726Z,67.85
2022-09-28T00:24:15.875Z,72.57
2022-09-28T00:26:51.289Z,57.80
2022-09-28T00:29:32.447Z,64.53
2022-09-28T00:32:05.118Z,61.47
2022-09-28T00:34:37.855Z,67.80
2022-09-28T00:37:06.124Z,63.60
2022-09-28T00:39:35.793Z,74.75
2022-09-28T00:42:04.071Z,61.88
2022-09-28T00:44:36.328Z,64.85
2022-09-28T00:47:31.447Z,71.53
2022-09-28T00:50:20.925Z,65.20
2022-09-28T00:53:12.779Z,61.65
2022-09-28T00:55:42.432Z,58.17
2022-09-28T00:58:12.016Z,63.22
2022-09-28T01:00:42.767Z,61.40
2022-09-28T01:03:10.429Z,60.03
2022-09-28T01:05:46.720Z,57.85
2022-09-28T01:08:15.124Z,57.05
2022-09-28T01:10:45.983Z,58.03
2022-09-28T01:13:13.729Z,61.97
2022-09-28T01:15:59.696Z,59.05
2022-09-28T01:18:37.412Z,57.58
2022-09-28T01:21:20.877Z,53.00
2022-09-28T01:24:11.025Z,62.25
2022-09-28T01:26:48.046Z,55.88
2022-09-28T01:29:27.691Z,59.30
2022-09-28T01:32:07.284Z,59.10
2022-09-28T01:34:39.085Z,61.10
2022-09-28T01:37:10.279Z,57.28
2022-09-28T01:39:40.489Z,59.63
2022-09-28T01:42:14.755Z,54.72
2022-09-28T01:44:43.206Z,55.30
2022-09-28T01:47:12.037Z,58.85
2022-09-28T01:49:42.136Z,60.25
2022-09-28T01:52:28.043Z,60.83
2022-09-28T01:54:59.360Z,55.95
2022-09-28T01:57:36.245Z,57.80
2022-09-28T02:00:12.075Z,57.63
2022-09-28T02:03:12.725Z,62.13
2022-09-28T02:05:48.757Z,64.72
2022-09-28T02:08:27.096Z,75.15
2022-09-28T02:11:02.422Z,74.78
2022-09-28T02:13:32.234Z,80.45
2022-09-28T02:16:31.564Z,66.53
2022-09-28T02:18:59.239Z,71.10
2022-09-28T02:21:42.177Z,67.78
2022-09-28T02:24:21.416Z,70.63
2022-09-28T02:26:50.304Z,70.72
2022-09-28T02:29:18.327Z,72.28
2022-09-28T02:31:46.026Z,69.95
2022-09-28T02:34:13.790Z,74.28
2022-09-28T02:36:41.516Z,70.60
2022-09-28T02:39:17.099Z,67.82
2022-09-28T02:42:06.491Z,79.55
2022-09-28T02:45:02.937Z,61.42
2022-09-28T02:47:36.630Z,61.53
2022-09-28T02:50:16.391Z,57.08
2022-09-28T02:53:02.532Z,65.05
2022-09-28T02:55:58.087Z,56.20
2022-09-28T02:58:33.317Z,53.88
2022-09-28T03:01:25.549Z,52.25
2022-09-28T03:04:10.849Z,47.63
2022-09-28T03:06:47.628Z,47.05
2022-09-28T03:09:23.319Z,50.20
2022-09-28T03:11:53.789Z,48.30
2022-09-28T03:14:21.650Z,44.67
2022-09-28T03:16:56.317Z,49.75
2022-09-28T03:19:26.407Z,52.53
2022-09-28T03:21:55.350Z,44.20
2022-09-28T03:24:24.094Z,47.38
2022-09-28T03:26:51.656Z,50.53
2022-09-28T03:29:22.094Z,48.40
2022-09-28T03:31:56.569Z,49.58
2022-09-28T03:34:24.174Z,47.92
2022-09-28T03:36:52.289Z,54.60
2022-09-28T03:39:20.266Z,53.60
2022-09-28T03:41:47.777Z,54.97
2022-09-28T03:44:17.161Z,55.45
2022-09-28T03:46:46.728Z,57.40
2022-09-28T03:49:14.276Z,54.97
2022-09-28T03:51:41.831Z,61.28
2022-09-28T03:54:09.787Z,58.00
2022-09-28T03:56:38.035Z,60.85
2022-09-28T03:59:05.759Z,61.45
2022-09-28T04:01:33.492Z,60.65
2022-09-28T04:04:01.269Z,61.78
2022-09-28T04:06:28.804Z,64.22
2022-09-28T04:08:59.547Z,57.67
2022-09-28T04:11:30.042Z,60.45
2022-09-28T04:14:03.879Z,57.47
2022-09-28T04:16:32.023Z,61.78
2022-09-28T04:19:07.852Z,54.08
2022-09-28T04:21:55.580Z,59.10
2022-09-28T04:24:23.618Z,59.38
2022-09-28T04:26:52.159Z,58.05
2022-09-28T04:29:20.923Z,59.42
2022-09-28T04:31:56.898Z,54.58
2022-09-28T04:34:36.487Z,51.60
2022-09-28T04:37:06.533Z,52.35
2022-09-28T04:39:34.764Z,50.17
2022-09-28T04:42:02.625Z,48.42
2022-09-28T04:44:30.277Z,50.25
2022-09-28T04:47:05.198Z,50.70
2022-09-28T04:49:35.564Z,54.35
2022-09-28T04:52:17.215Z,55.42
2022-09-28T04:54:46.225Z,50.75
2022-09-28T04:57:13.857Z,58.25
2022-09-28T04:59:42.581Z,58.88
2022-09-28T05:02:11.036Z,63.42
2022-09-28T05:04:59.123Z,56.78
2022-09-28T05:07:27.085Z,56.67
2022-09-28T05:09:55.402Z,57.72
2022-09-28T05:12:23.356Z,56.15
2022-09-28T05:14:51.013Z,57.42
2022-09-28T05:17:20.424Z,58.78
2022-09-28T05:20:02.933Z,62.05
2022-09-28T05:22:30.858Z,60.05
2022-09-28T05:25:00.412Z,69.10
2022-09-28T05:27:32.480Z,64.93
2022-09-28T05:30:07.352Z,63.50
2022-09-28T05:33:04.728Z,64.63
2022-09-28T05:35:55.133Z,61.65
2022-09-28T05:38:24.607Z,58.53
2022-09-28T05:40:52.310Z,59.25
2022-09-28T05:43:20.095Z,48.70
2022-09-28T05:45:52.823Z,51.05
2022-09-28T05:48:23.238Z,51.80
2022-09-28T05:50:52.615Z,51.47
2022-09-28T05:53:20.884Z,51.13
2022-09-28T05:55:48.434Z,45.95
2022-09-28T05:58:16.905Z,50.45
2022-09-28T06:00:44.827Z,52.55
2022-09-28T06:03:13.892Z,44.85
2022-09-28T06:05:41.815Z,47.80
2022-09-28T06:08:11.723Z,43.05
2022-09-28T06:10:43.996Z,41.58
2022-09-28T06:13:12.238Z,37.08
2022-09-28T06:15:42.143Z,33.92
2022-09-28T06:18:15.045Z,29.23
2022-09-28T06:21:02.752Z,34.97
2022-09-28T06:23:36.674Z,28.20
2022-09-28T06:26:04.330Z,29.90
2022-09-28T06:28:32.073Z,26.30
2022-09-28T06:31:00.854Z,28.30
2022-09-28T06:33:30.297Z,30.08
2022-09-28T06:35:59.558Z,24.40
2022-09-28T06:38:27.403Z,23.35
2022-09-28T06:40:56.701Z,23.70
2022-09-28T06:43:24.734Z,26.85
2022-09-28T06:46:10.762Z,24.73
2022-09-28T06:48:38.357Z,25.20
2022-09-28T06:51:08.529Z,29.83
2022-09-28T06:53:55.565Z,24.55
2022-09-28T06:56:43.558Z,29.00
2022-09-28T06:59:11.189Z,27.33
2022-09-28T07:01:40.036Z,27.70
2022-09-28T07:04:20.435Z,25.80
2022-09-28T07:07:09.779Z,30.33
2022-09-28T07:10:11.868Z,27.95
2022-09-28T07:13:04.940Z,27.45
2022-09-28T07:15:43.476Z,28.25
2022-09-28T07:18:14.146Z,29.75
2022-09-28T07:20:52.795Z,29.60
2022-09-28T07:23:21.840Z,28.65
2022-09-28T07:26:12.231Z,29.73
2022-09-28T07:29:06.239Z,28.40
2022-09-28T07:32:05.885Z,28.85
2022-09-28T07:37:33.688Z,30.95
2022-09-28T07:40:20.425Z,32.97
2022-09-28T07:42:49.365Z,34.40
2022-09-28T07:45:17.585Z,32.92
2022-09-28T07:47:46.236Z,31.60
2022-09-28T07:50:28.568Z,37.65
2022-09-28T07:53:01.239Z,35.10
2022-09-28T07:55:32.356Z,31.35
2022-09-28T07:58:22.815Z,31.88
2022-09-28T08:01:12.005Z,29.60
2022-09-28T08:03:40.286Z,29.48
2022-09-28T08:06:09.991Z,31.25
2022-09-28T08:08:43.944Z,31.13
2022-09-28T08:11:15.988Z,32.40
2022-09-28T08:14:03.525Z,32.30
2022-09-28T08:17:04.517Z,30.90
2022-09-28T08:19:58.297Z,31.65
2022-09-28T08:22:26.060Z,31.85
2022-09-28T08:24:56.494Z,35.28
2022-09-28T08:27:24.138Z,28.58
2022-09-28T08:29:51.790Z,30.75
2022-09-28T08:32:48.880Z,32.93
2022-09-28T08:35:34.996Z,31.95
2022-09-28T08:38:16.710Z,31.40
2022-09-28T08:41:19.393Z,35.55
2022-09-28T08:44:24.181Z,32.85
2022-09-28T08:47:02.480Z,35.97
2022-09-28T08:49:47.394Z,27.55
2022-09-28T08:52:40.745Z,32.50
2022-09-28T08:55:37.992Z,34.05
2022-09-28T08:58:20.100Z,33.38
2022-09-28T09:00:49.636Z,35.83
2022-09-28T09:03:23.959Z,32.67
2022-09-28T09:06:29.960Z,32.70
2022-09-28T09:09:10.341Z,35.00
2022-09-28T09:12:04.884Z,28.92
2022-09-28T09:14:43.708Z,27.15
2022-09-28T09:17:21.449Z,28.35
2022-09-28T09:20:20.553Z,25.90
2022-09-28T09:22:59.118Z,27.95
2022-09-28T09:25:45.318Z,31.23
2022-09-28T09:28:48.157Z,28.30
2022-09-28T09:31:31.998Z,26.98
2022-09-28T09:34:15.519Z,28.98
2022-09-28T09:37:03.024Z,33.03
2022-09-28T09:39:58.102Z,28.45
2022-09-28T09:42:53.259Z,30.15
2022-09-28T09:46:00.299Z,30.17
2022-09-28T09:48:50.573Z,29.88
2022-09-28T09:51:32.275Z,31.98
2022-09-28T09:54:02.384Z,27.85
2022-09-28T09:56:39.753Z,31.13
2022-09-28T09:59:16.161Z,30.20
2022-09-28T10:02:22.061Z,30.00
2022-09-28T10:05:20.145Z,29.10
2022-09-28T10:07:57.453Z,32.58
2022-09-28T10:10:36.957Z,28.73
2022-09-28T10:13:10.311Z,28.50
2022-09-28T10:15:39.105Z,33.20
2022-09-28T10:18:30.132Z,28.48
2022-09-28T10:21:17.802Z,28.33
2022-09-28T10:24:47.660Z,27.75
2022-09-28T10:27:35.140Z,27.48
2022-09-28T10:30:24.535Z,32.47
2022-09-28T10:32:55.615Z,29.58
2022-09-28T10:35:25.952Z,31.40
2022-09-28T10:38:07.483Z,30.48
2022-09-28T10:41:11.219Z,31.42
2022-09-28T10:44:06.842Z,31.70
2022-09-28T10:46:44.348Z,33.60
2022-09-28T10:49:18.381Z,31.50
2022-09-28T10:51:56.732Z,35.13
2022-09-28T10:54:29.854Z,34.05
2022-09-28T10:56:59.501Z,34.08
2022-09-28T10:59:39.338Z,36.40
2022-09-28T11:02:37.970Z,35.92
2022-09-28T11:05:22.975Z,36.95
2022-09-28T11:07:55.568Z,35.53
2022-09-28T11:10:30.198Z,34.17
2022-09-28T11:13:04.579Z,35.33
2022-09-28T11:15:33.394Z,34.28
2022-09-28T11:18:20.189Z,37.00
2022-09-28T11:20:49.397Z,34.33
2022-09-28T11:23:26.888Z,32.35
2022-09-28T11:26:02.789Z,35.92
2022-09-28T11:28:36.059Z,35.05
2022-09-28T11:31:08.958Z,33.60
2022-09-28T11:34:01.154Z,34.20
2022-09-28T11:37:13.770Z,36.05
2022-09-28T11:39:50.927Z,28.70
2022-09-28T11:42:41.497Z,27.25
2022-09-28T11:45:27.872Z,31.08
2022-09-28T11:48:01.084Z,35.17
2022-09-28T11:50:36.075Z,35.40
2022-09-28T11:53:31.103Z,34.25
2022-09-28T11:56:31.439Z,35.40
2022-09-28T11:59:27.907Z,53.42
2022-09-28T12:02:13.686Z,32.38
2022-09-28T12:05:28.448Z,35.70
2022-09-28T12:08:02.494Z,31.77
2022-09-28T12:11:17.351Z,34.20
2022-09-28T12:14:27.734Z,35.33
2022-09-28T12:17:19.843Z,35.78
2022-09-28T12:20:04.112Z,33.67
2022-09-28T12:22:38.429Z,34.85
2022-09-28T12:25:06.864Z,35.42
2022-09-28T12:27:49.437Z,35.05
2022-09-28T12:30:21.525Z,34.50
2022-09-28T12:33:04.572Z,36.00
2022-09-28T12:35:45.128Z,39.72
2022-09-28T12:38:34.539Z,39.13
2022-09-28T12:41:13.746Z,33.58
2022-09-28T12:43:54.538Z,36.85
2022-09-28T12:46:37.064Z,38.70
2022-09-28T12:52:45.889Z,32.25
2022-09-28T12:55:50.124Z,41.47
2022-09-28T12:59:00.122Z,37.63
2022-09-28T13:01:40.205Z,38.42
2022-09-28T13:06:49.702Z,36.88
2022-09-28T13:09:24.995Z,42.80
2022-09-28T13:12:04.270Z,41.28
2022-09-28T13:14:43.780Z,41.13
2022-09-28T13:17:20.663Z,42.35
2022-09-28T13:19:59.267Z,36.95
2022-09-28T13:22:44.422Z,41.70
2022-09-28T13:25:18.595Z,44.50
2022-09-28T13:30:17.657Z,40.58
2022-09-28T13:32:47.701Z,37.55
2022-09-28T13:35:16.156Z,43.40
2022-09-28T13:37:43.708Z,38.17
2022-09-28T13:40:11.560Z,39.55
2022-09-28T13:42:42.570Z,40.67
2022-09-28T13:45:25.185Z,43.60
2022-09-28T13:48:13.069Z,39.20
2022-09-28T13:51:15.504Z,40.88
2022-09-28T13:56:31.886Z,42.25
2022-09-28T13:59:29.993Z,44.95
2022-09-28T14:02:07.201Z,49.10
2022-09-28T14:04:54.287Z,43.58
2022-09-28T14:07:34.441Z,44.45
2022-09-28T14:10:21.158Z,44.88
2022-09-28T14:12:51.483Z,41.97
2022-09-28T14:15:31.484Z,43.72
2022-09-28T14:18:14.421Z,40.20
2022-09-28T14:20:47.942Z,43.92
2022-09-28T14:23:29.852Z,41.22
2022-09-28T14:26:15.052Z,42.50
2022-09-28T14:28:49.244Z,39.67
2022-09-28T14:31:25.560Z,37.85
2022-09-28T14:33:58.353Z,41.05
2022-09-28T14:36:56.548Z,36.72
2022-09-28T14:39:48.682Z,38.90
2022-09-28T14:42:18.410Z,37.28
2022-09-28T14:45:06.773Z,37.10
2022-09-28T14:47:38.028Z,37.05
2022-09-28T14:50:38.056Z,36.45
2022-09-28T14:53:06.650Z,40.40
2022-09-28T14:55:51.188Z,39.65
2022-09-28T14:58:27.645Z,31.90
2022-09-28T15:01:06.601Z,36.58
2022-09-28T15:03:34.558Z,33.47
2022-09-28T15:06:02.085Z,81.63
2022-09-28T15:08:38.721Z,31.52
2022-09-28T15:11:06.814Z,33.92
2022-09-28T15:13:34.309Z,32.97
2022-09-28T15:16:11.626Z,37.58
2022-09-28T15:19:04.632Z,38.60
2022-09-28T15:21:39.056Z,33.35
2022-09-28T15:24:28.977Z,33.88
2022-09-28T15:26:56.915Z,41.65
2022-09-28T15:29:27.296Z,39.67
2022-09-28T15:31:54.942Z,32.67
2022-09-28T15:34:48.752Z,38.92
2022-09-28T15:37:19.102Z,41.25
2022-09-28T15:39:48.341Z,128.30
2022-09-28T15:42:17.161Z,34.95
2022-09-28T15:45:26.815Z,40.13
2022-09-28T15:48:17.887Z,38.00
2022-09-28T15:51:03.933Z,32.55
2022-09-28T15:53:31.658Z,28.35
2022-09-28T15:56:01.319Z,28.70
2022-09-28T15:58:29.179Z,25.27
2022-09-28T16:01:25.419Z,29.40
2022-09-28T16:03:52.969Z,29.52
2022-09-28T16:06:20.763Z,28.52
2022-09-28T16:08:49.175Z,36.92
2022-09-28T16:11:28.006Z,31.00
2022-09-28T16:14:06.210Z,32.13
2022-09-28T16:16:42.149Z,30.23
2022-09-28T16:19:21.138Z,29.88
2022-09-28T16:21:48.762Z,30.30
2022-09-28T16:24:21.370Z,25.02
2022-09-28T16:26:49.417Z,28.75
2022-09-28T16:29:40.324Z,28.33
2022-09-28T16:32:26.680Z,27.08
2022-09-28T16:35:11.005Z,52.97
2022-09-28T16:37:42.834Z,27.38
2022-09-28T16:42:45.522Z,24.20
2022-09-28T16:45:20.662Z,26.98
2022-09-28T16:47:53.079Z,24.10
2022-09-28T16:50:21.335Z,27.83
2022-09-28T16:53:31.690Z,25.70
2022-09-28T16:55:59.910Z,23.63
2022-09-28T16:58:28.979Z,26.63
2022-09-28T17:00:56.734Z,23.60
2022-09-28T17:03:24.671Z,22.10
2022-09-28T17:05:52.883Z,22.00
2022-09-28T17:08:22.429Z,32.65
2022-09-28T17:13:41.110Z,29.80
2022-09-28T17:16:13.593Z,25.98
2022-09-28T17:18:41.367Z,27.42
2022-09-28T17:21:27.044Z,24.88
2022-09-28T17:23:54.859Z,28.15
2022-09-28T17:26:31.716Z,27.65
2022-09-28T17:28:59.744Z,28.10
2022-09-28T17:31:27.928Z,24.60
2022-09-28T17:33:55.485Z,26.60
2022-09-28T17:36:23.304Z,28.33
2022-09-28T17:39:06.596Z,28.80
2022-09-28T17:41:34.871Z,26.17
2022-09-28T17:44:03.187Z,26.00
2022-09-28T17:46:41.776Z,28.38
2022-09-28T17:49:10.381Z,31.63
2022-09-28T17:51:38.145Z,27.75
2022-09-28T17:54:08.259Z,27.08
2022-09-28T17:56:36.300Z,26.65
2022-09-28T17:59:05.661Z,25.92
2022-09-28T18:01:34.843Z,39.40
2022-09-28T18:04:03.807Z,33.65
2022-09-28T18:06:33.835Z,39.92
2022-09-28T18:09:03.234Z,32.77
2022-09-28T18:11:31.679Z,29.88
2022-09-28T18:13:59.161Z,22.00
2022-09-28T18:16:28.950Z,25.17
2022-09-28T18:18:57.601Z,22.58
2022-09-28T18:21:25.778Z,20.35
2022-09-28T18:23:53.687Z,22.33
2022-09-28T18:26:21.330Z,29.65
2022-09-28T18:28:49.285Z,22.25
2022-09-28T18:31:19.266Z,24.90
2022-09-28T18:36:35.985Z,32.42
2022-09-28T18:39:03.694Z,28.80
2022-09-28T18:41:31.304Z,24.88
2022-09-28T18:44:01.679Z,27.65
2022-09-28T18:46:29.765Z,29.48
2022-09-28T18:48:57.609Z,23.13
2022-09-28T18:51:25.506Z,25.05
2022-09-28T18:53:55.083Z,24.73
2022-09-28T18:56:22.619Z,23.52
2022-09-28T18:58:51.758Z,28.25
2022-09-28T19:01:35.470Z,23.23
2022-09-28T19:04:05.194Z,25.30
2022-09-28T19:06:34.399Z,26.70
2022-09-28T19:09:02.622Z,29.30
2022-09-28T19:11:30.317Z,22.88
2022-09-28T19:13:57.877Z,26.75
2022-09-28T19:16:29.608Z,24.83
2022-09-28T19:18:57.799Z,27.42
2022-09-28T19:21:25.607Z,27.35
2022-09-28T19:23:55.535Z,31.33
2022-09-28T19:26:25.034Z,24.15
2022-09-28T19:28:52.804Z,30.90
2022-09-28T19:31:20.340Z,27.80
2022-09-28T19:33:48.280Z,28.25
2022-09-28T19:36:18.452Z,25.92
2022-09-28T19:38:46.972Z,27.85
2022-09-28T19:41:42.829Z,27.73
2022-09-28T19:44:25.727Z,26.98
2022-09-28T19:47:07.603Z,25.50
2022-09-28T19:52:16.122Z,23.03
2022-09-28T19:54:57.885Z,34.03
2022-09-28T19:57:30.290Z,35.13
2022-09-28T20:00:01.971Z,34.55
2022-09-28T20:02:34.014Z,31.50
2022-09-28T20:05:01.673Z,27.20
2022-09-28T20:07:32.966Z,27.33
2022-09-28T20:10:01.181Z,24.73
2022-09-28T20:12:30.994Z,25.52
2022-09-28T20:14:58.627Z,29.08
2022-09-28T20:17:27.772Z,26.55
2022-09-28T20:19:55.351Z,28.13
2022-09-28T20:22:22.922Z,28.85
2022-09-28T20:24:50.476Z,22.45
2022-09-28T20:27:18.046Z,24.88
2022-09-28T20:29:45.543Z,28.25
2022-09-28T20:32:13.693Z,24.50
2022-09-28T20:34:41.317Z,24.05
2022-09-28T20:37:09.945Z,24.75
2022-09-28T20:39:40.444Z,30.73
2022-09-28T20:42:11.692Z,25.17
2022-09-28T20:44:40.077Z,28.42
2022-09-28T20:47:07.616Z,28.40
2022-09-28T20:49:35.279Z,29.60
2022-09-28T20:52:02.912Z,23.95
2022-09-28T20:54:31.170Z,24.77
2022-09-28T20:56:59.031Z,29.17
2022-09-28T20:59:27.856Z,32.95
2022-09-28T21:01:56.041Z,26.95
2022-09-28T21:04:24.333Z,27.13
2022-09-28T21:06:52.274Z,29.63
2022-09-28T21:09:19.823Z,27.83
2022-09-28T21:11:48.231Z,25.80
2022-09-28T21:14:16.019Z,25.05
2022-09-28T21:16:45.065Z,20.02
2022-09-28T21:19:12.654Z,26.67
2022-09-28T21:21:40.953Z,25.65
2022-09-28T21:24:08.481Z,26.10
2022-09-28T21:26:37.094Z,27.08
2022-09-28T21:29:11.124Z,24.35
2022-09-28T21:31:45.817Z,26.23
2022-09-28T21:34:14.552Z,24.17
2022-09-28T21:36:43.533Z,29.80
2022-09-28T21:39:11.470Z,24.90
2022-09-28T21:41:39.409Z,28.42
2022-09-28T21:44:08.619Z,25.80
2022-09-28T21:46:36.948Z,25.48
2022-09-28T21:49:06.490Z,30.52
2022-09-28T21:51:35.306Z,33.47
2022-09-28T21:54:02.856Z,35.75
2022-09-28T21:56:33.496Z,31.98
2022-09-28T21:59:01.470Z,37.92
2022-09-28T22:01:29.541Z,29.25
2022-09-28T22:03:57.333Z,30.55
2022-09-28T22:06:28.119Z,29.33
2022-09-28T22:08:56.957Z,28.58
2022-09-28T22:11:26.377Z,28.10
2022-09-28T22:13:58.442Z,28.05
2022-09-28T22:16:28.560Z,25.88
2022-09-28T22:18:57.021Z,34.60
2022-09-28T22:21:26.388Z,23.50
2022-09-28T22:23:53.930Z,30.55
2022-09-28T22:26:41.396Z,29.73
2022-09-28T22:29:09.345Z,37.63
2022-09-28T22:31:39.154Z,40.65
2022-09-28T22:34:08.326Z,41.85
2022-09-28T22:36:36.730Z,48.30
2022-09-28T22:39:04.684Z,47.40
2022-09-28T22:41:32.511Z,50.50
2022-09-28T22:44:00.253Z,47.33
2022-09-28T22:46:28.846Z,47.75
2022-09-28T22:48:57.630Z,41.45
2022-09-28T22:51:26.391Z,36.10
2022-09-28T22:53:53.981Z,42.08
2022-09-28T22:56:21.497Z,50.60
2022-09-28T22:58:49.225Z,53.05
2022-09-28T23:01:18.729Z,49.90
2022-09-28T23:03:46.566Z,49.85
2022-09-28T23:06:17.094Z,49.30
2022-09-28T23:08:45.488Z,50.33
2022-09-28T23:11:13.159Z,48.88
2022-09-28T23:13:43.451Z,45.83
2022-09-28T23:16:11.912Z,54.05
2022-09-28T23:18:42.264Z,49.20
2022-09-28T23:21:15.684Z,57.78
2022-09-28T23:23:44.025Z,57.50
2022-09-28T23:26:19.053Z,51.00
2022-09-28T23:28:47.089Z,49.30
2022-09-28T23:31:18.874Z,46.47
2022-09-28T23:33:46.700Z,43.15
2022-09-28T23:36:14.910Z,44.05
2022-09-28T23:38:42.826Z,43.50
2022-09-28T23:41:10.593Z,48.65
2022-09-28T23:43:38.439Z,49.28
2022-09-28T23:46:06.250Z,48.58
2022-09-28T23:48:34.080Z,39.33
2022-09-28T23:51:01.753Z,45.38
2022-09-28T23:53:29.770Z,43.97
2022-09-28T23:55:57.249Z,45.55
2022-09-28T23:58:25.843Z,44.00
